Time;durP1;ratioP1;P1;durP2;ratioP2;P2;SDS_P1;SDS_P2;PMS_P1;PMS_P2;Temp;Humidity;BMP_temperature;BMP_pressure;BME280_temperature;BME280_humidity;BME280_pressure;Samples;Min_cycle;Max_cycle;Signal;HPM_P1;HPM_P2
2022/04/23 00:01:27;;;;;;;27.93;25.23;;;;;;;7.59;100.00;98334.91;5092814;28;20188;-76
2022/04/23 00:03:54;;;;;;;28.10;25.20;;;;;;;7.62;100.00;98336.28;5094646;28;20226;-80
2022/04/23 00:06:21;;;;;;;27.93;25.13;;;;;;;7.61;100.00;98335.47;5093167;28;20179;-77
2022/04/23 00:08:48;;;;;;;28.50;25.60;;;;;;;7.62;100.00;98342.44;5093612;28;20261;-77
2022/04/23 00:11:15;;;;;;;27.40;24.70;;;;;;;7.62;100.00;98333.63;5093559;28;20287;-77
2022/04/23 00:13:41;;;;;;;28.13;25.13;;;;;;;7.61;100.00;98332.00;5094592;28;20267;-78
2022/04/23 00:16:09;;;;;;;27.83;25.03;;;;;;;7.63;100.00;98329.91;5094427;28;20287;-78
2022/04/23 00:18:36;;;;;;;28.37;25.50;;;;;;;7.64;100.00;98335.03;5094798;28;20190;-77
2022/04/23 00:21:04;;;;;;;28.53;25.63;;;;;;;7.64;100.00;98336.88;5076165;28;20397;-77
2022/04/23 00:23:31;;;;;;;28.23;25.23;;;;;;;7.63;100.00;98338.72;5076348;28;20224;-77
2022/04/23 00:25:58;;;;;;;28.30;25.43;;;;;;;7.62;100.00;98333.63;5094299;28;20210;-77
2022/04/23 00:28:25;;;;;;;28.17;25.47;;;;;;;7.65;100.00;98338.50;5076071;28;20212;-77
2022/04/23 00:30:52;;;;;;;29.07;26.17;;;;;;;7.65;100.00;98335.84;5094243;28;20189;-77
2022/04/23 00:33:19;;;;;;;28.63;25.63;;;;;;;7.67;100.00;98339.06;5094465;28;20426;-78
2022/04/23 00:35:49;;;;;;;28.07;25.27;;;;;;;7.67;100.00;98329.22;5092937;28;20238;-77
2022/04/23 00:38:16;;;;;;;28.23;25.53;;;;;;;7.66;100.00;98338.25;5092886;28;20285;-77
2022/04/23 00:40:43;;;;;;;28.33;25.47;;;;;;;7.68;100.00;98335.38;5092550;28;20591;-78
2022/04/23 00:43:25;;;;;;;29.23;26.23;;;;;;;7.69;100.00;98347.66;5076272;28;20212;-77
2022/04/23 00:45:52;;;;;;;29.70;26.70;;;;;;;7.68;100.00;98343.38;5093372;28;20200;-77
2022/04/23 00:48:21;;;;;;;27.57;24.83;;;;;;;7.68;100.00;98351.38;5094548;28;20441;-77
2022/04/23 00:50:53;;;;;;;28.87;26.03;;;;;;;7.65;100.00;98339.28;5093449;28;20234;-77
2022/04/23 00:53:21;;;;;;;28.37;25.37;;;;;;;7.69;100.00;98348.47;5093000;28;20436;-76
2022/04/23 00:55:48;;;;;;;28.70;25.83;;;;;;;7.69;100.00;98345.00;5092063;28;20216;-78
2022/04/23 00:58:16;;;;;;;29.60;26.60;;;;;;;7.71;100.00;98349.03;5092301;28;20203;-77
2022/04/23 01:00:43;;;;;;;28.53;25.73;;;;;;;7.72;100.00;98350.66;5092220;28;20197;-77
2022/04/23 01:03:12;;;;;;;28.77;25.87;;;;;;;7.72;100.00;98348.00;5093338;28;20180;-77
2022/04/23 01:05:47;;;;;;;28.53;25.47;;;;;;;7.73;100.00;98348.81;5075412;28;20207;-76
2022/04/23 01:08:18;;;;;;;27.90;25.20;;;;;;;7.72;100.00;98345.34;5092779;28;20263;-77
2022/04/23 01:10:45;;;;;;;28.50;25.67;;;;;;;7.75;100.00;98346.72;5093283;28;20195;-77
2022/04/23 01:13:16;;;;;;;28.67;25.73;;;;;;;7.75;100.00;98352.84;5092556;28;20180;-77
2022/04/23 01:16:15;;;;;;;28.13;25.30;;;;;;;7.77;100.00;98347.31;5075569;28;20192;-77
2022/04/23 01:18:42;;;;;;;27.10;24.40;;;;;;;7.77;100.00;98339.31;5021256;28;20188;-78
2022/04/23 01:21:10;;;;;;;28.53;25.73;;;;;;;7.76;100.00;98341.16;5092369;28;20189;-77
2022/04/23 01:23:41;;;;;;;27.73;25.03;;;;;;;7.79;100.00;98343.34;5091778;28;20184;-77
2022/04/23 01:26:09;;;;;;;28.07;25.37;;;;;;;7.78;100.00;98346.25;5093023;28;20180;-77
2022/04/23 01:28:37;;;;;;;28.30;25.50;;;;;;;7.78;100.00;98349.75;5092037;28;20524;-77
2022/04/23 01:31:04;;;;;;;28.37;25.50;;;;;;;7.80;100.00;98352.16;5093059;28;20270;-76
2022/04/23 01:33:33;;;;;;;27.60;24.80;;;;;;;7.79;100.00;98350.56;5091480;28;20242;-77
2022/04/23 01:36:00;;;;;;;28.00;25.17;;;;;;;7.78;100.00;98347.09;5093387;28;20201;-77
2022/04/23 01:38:27;;;;;;;28.87;25.90;;;;;;;7.81;100.00;98340.47;5092367;28;20204;-76
2022/04/23 01:40:54;;;;;;;27.77;24.97;;;;;;;7.85;100.00;98347.75;5074696;28;20185;-77
2022/04/23 01:43:21;;;;;;;27.87;25.17;;;;;;;7.83;100.00;98344.53;5091826;28;20216;-77
2022/04/23 01:45:48;;;;;;;27.93;25.23;;;;;;;7.82;100.00;98348.25;5091350;28;20192;-77
2022/04/23 01:48:15;;;;;;;27.27;24.57;;;;;;;7.83;100.00;98347.19;5092576;28;20264;-77
2022/04/23 01:50:41;;;;;;;29.03;26.17;;;;;;;7.81;100.00;98348.47;5091143;28;20189;-77
2022/04/23 01:53:08;;;;;;;27.07;24.37;;;;;;;7.83;100.00;98351.72;5092476;28;20208;-76
2022/04/23 01:55:35;;;;;;;29.10;26.30;;;;;;;7.82;100.00;98348.25;5091731;28;20224;-77
2022/04/23 01:58:02;;;;;;;27.90;25.10;;;;;;;7.85;100.00;98349.63;5092647;28;20208;-77
2022/04/23 02:00:28;;;;;;;28.17;25.40;;;;;;;7.82;100.00;98350.09;5090767;28;20184;-77
2022/04/23 02:02:57;;;;;;;27.50;24.67;;;;;;;7.82;100.00;98348.25;5092074;28;20185;-77
2022/04/23 02:05:24;;;;;;;28.53;25.73;;;;;;;7.83;100.00;98357.88;5092212;28;20188;-77
2022/04/23 02:07:51;;;;;;;29.03;25.93;;;;;;;7.81;100.00;98362.59;5092160;28;20188;-77
2022/04/23 02:10:18;;;;;;;27.97;25.20;;;;;;;7.83;100.00;98365.06;5090882;28;20284;-77
2022/04/23 02:12:47;;;;;;;28.80;25.73;;;;;;;7.82;100.00;98356.22;5091153;28;20249;-77
2022/04/23 02:15:15;;;;;;;30.33;27.17;;;;;;;7.83;100.00;98359.72;5091934;28;20184;-76
2022/04/23 02:17:44;;;;;;;29.50;26.43;;;;;;;7.83;100.00;98360.53;5091022;28;20234;-76
2022/04/23 02:20:13;;;;;;;28.30;25.50;;;;;;;7.84;100.00;98353.31;5092550;28;20177;-76
2022/04/23 02:22:40;;;;;;;30.13;27.03;;;;;;;7.86;100.00;98356.56;5091853;28;20188;-77
2022/04/23 02:25:07;;;;;;;29.87;26.87;;;;;;;7.86;100.00;98359.25;5090815;28;20187;-77
2022/04/23 02:27:43;;;;;;;30.80;27.70;;;;;;;7.86;100.00;98370.72;5091575;28;20184;-77
2022/04/23 02:30:12;;;;;;;30.87;27.87;;;;;;;7.88;100.00;98363.31;5090727;28;20504;-77
2022/04/23 02:32:39;;;;;;;32.97;29.47;;;;;;;7.85;100.00;98363.75;5090676;28;20510;-77
2022/04/23 02:35:06;;;;;;;31.57;28.27;;;;;;;7.85;100.00;98362.94;5092131;28;20215;-77
2022/04/23 02:37:35;;;;;;;32.77;29.40;;;;;;;7.85;100.00;98363.75;5091566;28;20283;-77
2022/04/23 02:40:06;;;;;;;33.27;29.77;;;;;;;7.90;100.00;98366.53;5092226;28;20200;-78
2022/04/23 02:42:39;;;;;;;33.57;29.90;;;;;;;7.93;100.00;98367.94;5073816;28;20215;-77
2022/04/23 02:45:07;;;;;;;34.33;30.73;;;;;;;7.83;100.00;98367.72;5074827;28;20228;-76
2022/04/23 02:47:42;;;;;;;34.30;30.70;;;;;;;7.81;100.00;98365.28;5090235;28;20263;-76
2022/04/23 02:50:12;;;;;;;34.40;30.70;;;;;;;7.88;100.00;98365.16;5091959;28;20527;-76
2022/04/23 02:52:43;;;;;;;36.07;32.17;;;;;;;7.98;100.00;98360.84;5074009;28;20216;-77
2022/04/23 02:55:11;;;;;;;36.53;32.53;;;;;;;7.97;100.00;98359.25;5073424;28;20243;-77
2022/04/23 02:57:40;;;;;;;39.00;33.37;;;;;;;7.96;100.00;98352.28;5089914;28;20619;-77
2022/04/23 03:00:09;;;;;;;37.83;33.10;;;;;;;7.93;100.00;98354.63;5091208;28;20270;-77
2022/04/23 03:02:38;;;;;;;41.53;34.83;;;;;;;8.11;100.00;98351.00;5091108;28;20281;-77
2022/04/23 03:05:16;;;;;;;38.33;33.63;;;;;;;7.98;100.00;98349.38;5091675;28;20184;-77
2022/04/23 03:07:45;;;;;;;40.17;33.70;;;;;;;7.95;100.00;98349.84;5091309;28;20528;-77
2022/04/23 03:10:14;;;;;;;43.43;35.27;;;;;;;8.01;100.00;98356.91;5090198;28;20234;-77
2022/04/23 03:12:41;;;;;;;38.63;34.10;;;;;;;8.04;100.00;98358.28;5090113;28;20179;-76
2022/04/23 03:15:16;;;;;;;41.13;36.37;;;;;;;8.10;100.00;98360.84;5090356;28;20191;-76
2022/04/23 03:17:45;;;;;;;41.10;35.90;;;;;;;8.05;100.00;98362.59;5093438;28;20195;-77
2022/04/23 03:20:15;;;;;;;43.90;36.60;;;;;;;8.06;100.00;98359.69;5077659;28;20223;-77
2022/04/23 03:22:42;;;;;;;42.50;37.43;;;;;;;7.94;100.00;98366.88;5095248;28;20172;-77
2022/04/23 03:25:11;;;;;;;46.83;37.20;;;;;;;7.96;100.00;98372.81;5093910;28;20199;-76
2022/04/23 03:27:38;;;;;;;44.67;37.13;;;;;;;7.93;100.00;98379.41;5094036;28;20526;-77
2022/04/23 03:30:05;;;;;;;47.43;38.87;;;;;;;7.92;100.00;98377.00;5095188;28;20596;-78
2022/04/23 03:32:32;;;;;;;48.23;39.20;;;;;;;7.93;100.00;98378.63;5093687;28;20283;-77
2022/04/23 03:34:59;;;;;;;49.63;40.30;;;;;;;8.08;100.00;98381.59;5095372;28;20214;-77
2022/04/23 03:37:26;;;;;;;47.73;37.93;;;;;;;7.94;100.00;98381.03;5095162;28;20199;-77
2022/04/23 03:39:53;;;;;;;48.40;39.70;;;;;;;7.97;100.00;98385.09;5095098;28;20669;-77
2022/04/23 03:42:20;;;;;;;49.57;40.47;;;;;;;8.03;100.00;98383.34;5095819;28;20652;-77
2022/04/23 03:44:47;;;;;;;50.60;41.20;;;;;;;8.10;100.00;98389.38;5094829;28;20263;-77
2022/04/23 03:47:15;;;;;;;47.30;40.60;;;;;;;7.98;100.00;98378.69;5094754;28;20219;-77
2022/04/23 03:49:42;;;;;;;47.80;40.10;;;;;;;8.06;100.00;98393.56;5093825;28;20184;-76
2022/04/23 03:52:12;;;;;;;50.17;41.77;;;;;;;8.16;100.00;98391.13;5094858;28;20479;-76
2022/04/23 03:54:39;;;;;;;48.03;40.63;;;;;;;8.05;100.00;98391.94;5094780;28;20214;-77
2022/04/23 03:57:07;;;;;;;51.17;41.90;;;;;;;8.03;100.00;98392.16;5077307;28;20266;-76
2022/04/23 03:59:37;;;;;;;47.40;41.17;;;;;;;7.97;100.00;98390.44;5093495;28;20207;-77
2022/04/23 04:02:07;;;;;;;49.60;42.17;;;;;;;7.97;100.00;98393.91;5093575;28;20211;-77
2022/04/23 04:04:34;;;;;;;49.87;41.63;;;;;;;7.98;100.00;98389.38;5094443;28;20239;-78
2022/04/23 04:07:02;;;;;;;50.63;41.17;;;;;;;7.99;100.00;98399.00;5095067;28;20188;-77
2022/04/23 04:09:29;;;;;;;52.77;42.00;;;;;;;7.96;100.00;98391.47;5094895;28;20204;-77
2022/04/23 04:12:02;;;;;;;53.77;41.77;;;;;;;7.98;100.00;98400.03;5093617;28;20490;-76
2022/04/23 04:14:33;;;;;;;52.63;42.67;;;;;;;7.99;100.00;98396.34;5093166;28;20514;-79
2022/04/23 04:17:01;;;;;;;54.27;43.63;;;;;;;8.09;100.00;98403.75;5092885;28;20317;-77
2022/04/23 04:19:32;;;;;;;55.77;43.70;;;;;;;8.03;100.00;98399.34;5093225;28;20283;-78
2022/04/23 04:22:02;;;;;;;55.93;43.53;;;;;;;8.03;100.00;98392.16;5093642;28;20177;-77
2022/04/23 04:24:30;;;;;;;53.47;42.80;;;;;;;8.03;100.00;98391.34;5094243;28;20222;-77
2022/04/23 04:26:58;;;;;;;55.20;43.17;;;;;;;8.12;100.00;98398.75;5093955;28;20243;-76
2022/04/23 04:29:25;;;;;;;55.20;42.70;;;;;;;8.18;100.00;98395.16;5092757;28;20207;-77
2022/04/23 04:31:52;;;;;;;54.40;43.07;;;;;;;8.15;100.00;98398.31;5093082;28;20615;-77
2022/04/23 04:34:24;;;;;;;52.00;42.03;;;;;;;8.17;100.00;98395.38;5092875;28;20206;-76
2022/04/23 04:36:51;;;;;;;52.50;42.73;;;;;;;8.17;100.00;98401.53;5093205;28;20222;-77
2022/04/23 04:39:18;;;;;;;52.23;42.63;;;;;;;8.20;100.00;98401.09;5093883;28;20290;-78
2022/04/23 04:41:46;;;;;;;55.23;42.37;;;;;;;8.25;100.00;98403.06;5092297;28;20544;-77
2022/04/23 04:44:13;;;;;;;48.87;40.93;;;;;;;8.27;100.00;98399.09;5092771;28;20704;-77
2022/04/23 04:46:40;;;;;;;49.00;40.57;;;;;;;8.36;100.00;98404.91;5092833;28;20275;-78
2022/04/23 04:49:07;;;;;;;52.13;41.90;;;;;;;8.35;100.00;98408.66;5092822;28;20275;-79
2022/04/23 04:51:36;;;;;;;50.00;40.90;;;;;;;8.34;100.00;98407.03;5094128;28;20191;-78
2022/04/23 04:54:04;;;;;;;52.77;40.60;;;;;;;8.45;100.00;98402.69;5076050;28;20189;-78
2022/04/23 04:56:31;;;;;;;48.03;39.83;;;;;;;8.40;100.00;98403.38;5092348;28;20307;-77
2022/04/23 04:58:58;;;;;;;49.87;39.43;;;;;;;8.43;100.00;98404.78;5092702;28;20586;-77
2022/04/23 05:01:25;;;;;;;49.13;39.60;;;;;;;8.50;100.00;98411.63;5092471;28;20233;-79
2022/04/23 05:03:53;;;;;;;45.77;37.80;;;;;;;8.70;100.00;98405.88;5094042;28;20176;-77
2022/04/23 05:06:21;;;;;;;44.83;38.83;;;;;;;8.71;100.00;98402.97;5093029;28;20207;-77
2022/04/23 05:08:47;;;;;;;239.43;133.97;;;;;;;8.74;100.00;98415.84;5092477;28;20619;-77
2022/04/23 05:11:14;;;;;;;71.73;62.83;;;;;;;8.81;100.00;98405.03;5093271;28;20249;-77
2022/04/23 05:13:41;;;;;;;48.17;40.50;;;;;;;8.88;100.00;98418.25;5092530;28;20375;-78
2022/04/23 05:16:08;;;;;;;67.30;58.07;;;;;;;9.01;100.00;98421.44;5092572;28;20204;-78
2022/04/23 05:18:35;;;;;;;47.27;41.07;;;;;;;8.94;100.00;98420.78;5092310;28;20203;-77
2022/04/23 05:21:03;;;;;;;42.23;36.37;;;;;;;8.87;100.00;98425.44;5093212;28;20276;-77
2022/04/23 05:23:30;;;;;;;41.07;36.50;;;;;;;8.91;100.00;98429.28;5092845;28;20211;-76
2022/04/23 05:25:57;;;;;;;41.83;37.23;;;;;;;8.81;100.00;98432.56;5092153;28;20216;-77
2022/04/23 05:28:24;;;;;;;43.70;38.47;;;;;;;8.91;100.00;98429.28;5092070;28;20652;-78
2022/04/23 05:30:51;;;;;;;41.77;37.30;;;;;;;9.06;100.00;98426.06;5092622;28;20231;-77
2022/04/23 05:33:17;;;;;;;39.03;34.70;;;;;;;8.86;100.00;98439.06;5091890;28;20223;-77
2022/04/23 05:35:44;;;;;;;40.30;35.90;;;;;;;8.94;100.00;98436.00;5094002;28;20184;-77
2022/04/23 05:38:11;;;;;;;39.50;33.27;;;;;;;8.96;100.00;98449.94;5092536;28;20196;-77
2022/04/23 05:40:37;;;;;;;37.53;33.47;;;;;;;8.93;100.00;98447.72;5092645;28;20279;-77
2022/04/23 05:43:04;;;;;;;36.83;32.13;;;;;;;8.95;100.00;98450.97;5092621;28;20208;-78
2022/04/23 05:45:31;;;;;;;34.30;30.60;;;;;;;9.09;100.00;98444.31;5092022;28;20212;-76
2022/04/23 05:47:58;;;;;;;35.50;31.67;;;;;;;9.17;100.00;98451.94;5092391;28;20185;-77
2022/04/23 05:50:25;;;;;;;34.50;30.83;;;;;;;9.31;100.00;98455.13;5092063;28;20176;-78
2022/04/23 05:52:52;;;;;;;34.37;30.67;;;;;;;9.14;100.00;98466.59;5091858;28;20575;-77
2022/04/23 05:55:19;;;;;;;35.50;30.90;;;;;;;9.12;100.00;98462.53;5092908;28;20236;-77
2022/04/23 05:57:47;;;;;;;34.03;29.63;;;;;;;9.02;100.00;98470.34;5091288;28;20666;-77
2022/04/23 06:00:14;;;;;;;34.80;30.17;;;;;;;9.01;100.00;98479.41;5092638;28;20180;-78
2022/04/23 06:02:40;;;;;;;34.63;30.20;;;;;;;9.07;100.00;98476.59;5090555;28;20184;-77
2022/04/23 06:05:08;;;;;;;32.37;28.87;;;;;;;9.08;100.00;98482.75;5092270;28;20269;-78
2022/04/23 06:07:35;;;;;;;34.27;30.67;;;;;;;9.07;100.00;98479.28;5074303;28;20460;-78
2022/04/23 06:10:02;;;;;;;34.17;30.37;;;;;;;9.11;100.00;98480.41;5092677;28;20271;-77
2022/04/23 06:12:28;;;;;;;34.87;31.17;;;;;;;9.14;100.00;98484.50;5091907;28;20207;-77
2022/04/23 06:14:55;;;;;;;33.17;29.73;;;;;;;9.13;100.00;98493.56;5092059;28;20184;-78
2022/04/23 06:17:26;;;;;;;32.70;29.20;;;;;;;9.03;100.00;98496.00;5091597;28;20535;-77
2022/04/23 06:19:55;;;;;;;30.70;27.53;;;;;;;9.03;100.00;98493.34;5091398;28;20172;-77
2022/04/23 06:22:22;;;;;;;32.20;27.57;;;;;;;9.07;100.00;98491.81;5093003;28;20195;-77
2022/04/23 06:24:50;;;;;;;29.50;26.37;;;;;;;9.05;100.00;98499.28;5091634;28;20193;-78
2022/04/23 06:27:17;;;;;;;30.07;26.40;;;;;;;8.93;100.00;98495.81;5091478;28;20185;-78
2022/04/23 06:29:44;;;;;;;29.57;26.37;;;;;;;9.13;100.00;98498.91;5091408;28;20215;-76
2022/04/23 06:32:11;;;;;;;28.63;25.70;;;;;;;9.18;100.00;98501.66;5092763;28;20373;-76
2022/04/23 06:34:38;;;;;;;28.67;25.73;;;;;;;9.24;100.00;98500.69;5091037;28;20185;-77
2022/04/23 06:37:06;;;;;;;28.67;25.60;;;;;;;9.36;100.00;98504.16;5092739;28;20184;-77
2022/04/23 06:39:33;;;;;;;27.47;24.67;;;;;;;9.40;100.00;98502.63;5091133;28;20307;-77
2022/04/23 06:42:00;;;;;;;27.93;25.10;;;;;;;9.46;100.00;98501.69;5091265;28;20218;-77
2022/04/23 06:44:28;;;;;;;26.57;23.87;;;;;;;9.56;100.00;98507.22;5090806;28;20249;-78
2022/04/23 06:46:54;;;;;;;28.67;25.57;;;;;;;9.66;100.00;98509.22;5091581;28;20215;-79
2022/04/23 06:49:23;;;;;;;26.53;23.73;;;;;;;9.63;100.00;98509.72;5090168;28;20564;-76
2022/04/23 06:51:50;;;;;;;26.83;24.13;;;;;;;9.77;100.00;98510.22;5088884;28;20185;-77
2022/04/23 06:54:16;;;;;;;26.57;23.87;;;;;;;9.83;100.00;98514.63;5090726;28;20222;-77
2022/04/23 06:56:45;;;;;;;25.47;22.77;;;;;;;9.88;100.00;98514.72;5074469;28;20216;-77
2022/04/23 06:59:12;;;;;;;26.90;24.10;;;;;;;9.84;100.00;98511.72;5091448;28;20303;-77
2022/04/23 07:01:40;;;;;;;25.73;23.03;;;;;;;9.97;100.00;98511.41;5092221;28;20210;-77
2022/04/23 07:04:08;;;;;;;25.87;23.27;;;;;;;10.20;100.00;98517.66;5091582;28;20263;-77
2022/04/23 07:06:35;;;;;;;25.40;22.83;;;;;;;10.07;100.00;98526.81;5092252;28;20204;-78
2022/04/23 07:09:04;;;;;;;26.13;23.43;;;;;;;10.05;100.00;98526.22;5091256;28;20648;-76
2022/04/23 07:11:30;;;;;;;24.77;22.27;;;;;;;10.18;100.00;98535.81;5091100;28;20204;-77
2022/04/23 07:13:57;;;;;;;25.20;22.63;;;;;;;10.15;100.00;98535.28;5092267;28;20270;-77
2022/04/23 07:16:24;;;;;;;25.37;22.67;;;;;;;10.28;100.00;98528.78;5091211;28;20187;-78
2022/04/23 07:18:52;;;;;;;24.90;22.40;;;;;;;10.30;100.00;98540.06;5092098;28;20257;-78
2022/04/23 07:21:20;;;;;;;24.60;22.10;;;;;;;10.25;100.00;98539.16;5092352;28;20259;-78
2022/04/23 07:24:05;;;;;;;24.10;21.73;;;;;;;10.18;100.00;98536.63;5091218;28;20544;-78
2022/04/23 07:26:35;;;;;;;24.03;21.47;;;;;;;10.27;100.00;98537.84;5090906;28;20177;-78
2022/04/23 07:29:07;;;;;;;23.40;21.10;;;;;;;10.34;100.00;98532.34;5077142;28;20242;-78
2022/04/23 07:31:35;;;;;;;25.00;22.50;;;;;;;10.15;100.00;98534.44;5101238;28;20526;-78
2022/04/23 07:39:33;;;;;;;24.33;21.93;;;;;;;10.22;100.00;98531.63;5076602;28;20295;-78
2022/04/23 07:42:01;;;;;;;23.50;21.13;;;;;;;10.36;100.00;98538.28;5090566;28;20184;-78
2022/04/23 07:44:27;;;;;;;23.23;20.97;;;;;;;10.65;100.00;98531.72;5092154;28;20232;-78
2022/04/23 07:46:54;;;;;;;23.93;21.43;;;;;;;10.68;100.00;98536.63;5074504;28;20550;-77
2022/04/23 07:49:21;;;;;;;25.00;22.40;;;;;;;10.90;100.00;98533.97;5091186;28;20618;-78
2022/04/23 07:51:49;;;;;;;24.17;21.53;;;;;;;11.04;100.00;98535.22;5092081;28;20525;-77
2022/04/23 07:54:16;;;;;;;24.13;21.63;;;;;;;10.97;100.00;98534.56;5092532;28;20216;-77
2022/04/23 07:56:44;;;;;;;23.90;21.47;;;;;;;10.87;100.00;98540.59;5090960;28;20216;-78
2022/04/23 07:59:11;;;;;;;24.30;21.80;;;;;;;10.73;100.00;98539.34;5092767;28;20204;-79
2022/04/23 08:01:38;;;;;;;25.53;22.93;;;;;;;10.92;100.00;98546.03;5090861;28;20235;-79
2022/04/23 08:04:06;;;;;;;24.97;22.37;;;;;;;10.96;100.00;98541.00;5077066;28;20193;-76
2022/04/23 08:06:33;;;;;;;24.27;21.77;;;;;;;11.51;100.00;98548.91;5095524;28;20200;-77
2022/04/23 08:09:00;;;;;;;25.47;22.77;;;;;;;12.06;100.00;98555.94;5095421;28;20223;-78
2022/04/23 08:11:27;;;;;;;24.50;22.00;;;;;;;12.08;100.00;98561.88;5096029;28;20177;-77
2022/04/23 08:13:54;;;;;;;25.77;23.17;;;;;;;11.49;100.00;98556.38;5094711;28;20282;-77
2022/04/23 08:16:20;;;;;;;24.57;22.07;;;;;;;11.77;100.00;98558.88;5094500;28;20184;-77
2022/04/23 08:18:47;;;;;;;27.47;24.67;;;;;;;11.90;100.00;98563.00;5096189;28;20695;-79
2022/04/23 08:21:14;;;;;;;28.33;25.30;;;;;;;12.71;100.00;98561.00;5094688;28;20196;-77
2022/04/23 08:23:41;;;;;;;25.00;22.60;;;;;;;13.07;100.00;98554.75;5095260;28;20501;-77
2022/04/23 08:26:08;;;;;;;27.23;24.53;;;;;;;12.43;100.00;98572.09;5096256;28;20222;-79
2022/04/23 08:31:21;;;;;;;24.47;22.07;;;;;;;13.32;100.00;98574.81;5095399;28;20579;-77
2022/04/23 08:34:03;;;;;;;26.30;23.60;;;;;;;13.62;100.00;98570.34;5094258;28;20546;-78
2022/04/23 08:36:36;;;;;;;24.73;22.30;;;;;;;13.61;100.00;98562.53;5080448;28;20165;-77
2022/04/23 08:39:04;;;;;;;23.80;21.43;;;;;;;13.06;100.00;98557.72;5079135;28;20208;-77
2022/04/23 08:41:34;;;;;;;24.97;22.60;;;;;;;12.68;100.00;98565.03;5095568;28;20180;-76
2022/04/23 08:44:07;;;;;;;27.60;24.83;;;;;;;12.85;100.00;98551.41;5079509;28;20628;-76
2022/04/23 08:46:38;;;;;;;26.10;23.47;;;;;;;13.50;100.00;98548.25;5095462;28;20184;-77
2022/04/23 08:49:11;;;;;;;28.67;25.67;;;;;;;12.79;100.00;98550.56;5095186;28;20215;-78
2022/04/23 08:51:40;;;;;;;28.13;25.23;;;;;;;12.62;100.00;98555.31;5094534;28;20172;-76
2022/04/23 08:54:11;;;;;;;27.00;24.30;;;;;;;12.68;100.00;98550.78;5094917;28;20580;-77
2022/04/23 08:56:40;;;;;;;28.20;25.40;;;;;;;13.45;100.00;98555.47;5094834;28;20254;-79
2022/04/23 08:59:08;;;;;;;28.00;25.10;;;;;;;13.97;100.00;98552.66;5093348;28;20220;-77
2022/04/23 09:01:36;;;;;;;27.13;24.37;;;;;;;14.87;100.00;98557.25;5093184;28;20585;-78
2022/04/23 09:04:05;;;;;;;28.40;25.60;;;;;;;14.71;100.00;98554.84;5093984;28;20588;-77
2022/04/23 09:06:45;;;;;;;27.27;24.37;;;;;;;15.29;100.00;98561.44;5093499;28;20191;-74
2022/04/23 09:09:13;;;;;;;27.73;24.93;;;;;;;14.88;100.00;98550.75;5093702;28;20260;-77
2022/04/23 09:11:46;;;;;;;28.43;25.50;;;;;;;14.67;100.00;98565.34;5093442;28;20227;-77
2022/04/23 09:14:25;;;;;;;28.70;25.77;;;;;;;15.18;100.00;98557.16;5095038;28;20210;-77
2022/04/23 09:25:35;;;;;;;28.70;25.90;;;;;;;15.18;100.00;98552.56;5092299;28;20166;-77
2022/04/23 09:28:20;;;;;;;28.73;25.93;;;;;;;16.04;100.00;98556.75;5093236;28;20189;-75
2022/04/23 09:30:51;;;;;;;27.83;25.10;;;;;;;16.62;100.00;98552.25;5096224;28;20209;-75
2022/04/23 09:33:21;;;;;;;28.80;26.07;;;;;;;16.36;100.00;98540.81;5107695;28;20202;-75
2022/04/23 09:35:59;;;;;;;29.70;26.80;;;;;;;17.22;100.00;98544.59;5092444;28;20472;-74
2022/04/23 09:38:26;;;;;;;29.70;26.93;;;;;;;17.62;97.71;98537.88;5105821;28;20221;-75
2022/04/23 09:40:57;;;;;;;28.80;26.00;;;;;;;17.55;96.39;98538.19;5110189;28;20267;-75
2022/04/23 09:43:31;;;;;;;29.83;27.03;;;;;;;16.64;100.00;98541.97;5084827;28;20215;-75
2022/04/23 09:46:02;;;;;;;30.43;27.53;;;;;;;17.00;100.00;98540.50;5084047;28;20195;-75
2022/04/23 09:48:38;;;;;;;32.00;28.83;;;;;;;17.07;100.00;98535.56;5112176;28;20553;-76
2022/04/23 09:51:06;;;;;;;30.63;27.67;;;;;;;16.53;100.00;98545.81;5097473;27;20190;-75
2022/04/23 09:53:33;;;;;;;30.00;27.20;;;;;;;16.19;100.00;98541.22;5089278;28;20204;-75
2022/04/23 09:56:03;;;;;;;30.93;27.90;;;;;;;16.88;100.00;98545.50;5090519;28;20313;-75
2022/04/23 09:58:33;;;;;;;31.70;28.67;;;;;;;16.43;100.00;98537.78;5083304;28;20583;-75
2022/04/23 10:01:00;;;;;;;32.23;29.20;;;;;;;16.75;100.00;98538.03;5087440;28;20222;-76
2022/04/23 10:03:29;;;;;;;31.87;28.87;;;;;;;16.88;100.00;98540.09;5084201;28;20214;-75
2022/04/23 10:05:57;;;;;;;32.13;29.13;;;;;;;17.39;100.00;98536.81;5110417;28;20216;-75
2022/04/23 10:08:34;;;;;;;33.53;30.27;;;;;;;16.79;100.00;98539.13;5092948;28;20598;-75
2022/04/23 10:11:11;;;;;;;32.47;29.43;;;;;;;16.38;100.00;98546.75;5074893;28;20575;-75
2022/04/23 10:13:44;;;;;;;33.60;30.40;;;;;;;16.67;100.00;98547.59;5073748;28;20406;-75
2022/04/23 10:16:11;;;;;;;33.17;30.07;;;;;;;17.09;100.00;98546.88;5091925;28;20179;-76
2022/04/23 10:18:38;;;;;;;34.30;31.00;;;;;;;16.56;100.00;98551.44;5108354;28;20199;-75
2022/04/23 10:21:09;;;;;;;32.20;29.23;;;;;;;16.50;100.00;98552.59;5089582;28;20213;-75
2022/04/23 10:24:00;;;;;;;33.23;30.23;;;;;;;16.64;100.00;98550.06;5070819;28;20190;-75
2022/04/23 10:26:35;;;;;;;33.47;30.17;;;;;;;17.36;100.00;98554.41;5071669;28;20168;-75
2022/04/23 10:29:12;;;;;;;33.87;30.67;;;;;;;16.52;100.00;98550.41;5071754;28;20751;-76
2022/04/23 10:31:38;;;;;;;34.63;31.43;;;;;;;17.50;100.00;98554.50;5070633;28;20266;-75
2022/04/23 10:34:07;;;;;;;32.60;29.60;;;;;;;17.35;100.00;98546.59;5071634;28;20193;-75
2022/04/23 10:36:33;;;;;;;33.20;30.00;;;;;;;16.79;100.00;98543.72;5070288;28;20221;-75
2022/04/23 10:39:19;;;;;;;33.47;30.30;;;;;;;16.80;100.00;98542.63;5070191;28;20224;-75
2022/04/23 10:41:46;;;;;;;30.80;28.00;;;;;;;16.51;100.00;98546.09;5070307;28;20257;-75
2022/04/23 10:44:21;;;;;;;31.53;28.43;;;;;;;16.53;100.00;98535.00;5070583;28;20223;-75
2022/04/23 10:46:50;;;;;;;34.23;31.13;;;;;;;16.53;100.00;98546.63;5070427;28;20665;-75
2022/04/23 10:49:24;;;;;;;33.47;30.37;;;;;;;16.43;100.00;98537.78;5070462;28;20266;-75
2022/04/23 10:51:56;;;;;;;30.80;27.87;;;;;;;16.40;100.00;98541.06;5070667;28;20179;-75
2022/04/23 10:54:43;;;;;;;29.33;26.63;;;;;;;16.43;100.00;98535.88;5070516;28;20182;-75
2022/04/23 10:57:13;;;;;;;28.07;25.40;;;;;;;17.25;100.00;98534.00;5064158;28;20211;-75
2022/04/23 10:59:48;;;;;;;27.70;25.20;;;;;;;17.56;100.00;98534.41;5070976;28;20603;-75
2022/04/23 11:02:21;;;;;;;27.17;24.47;;;;;;;17.25;99.98;98523.16;5070198;28;20192;-75
2022/04/23 11:13:26;;;;;;;23.97;21.77;;;;;;;19.14;85.16;98526.13;5071216;28;20265;-77
2022/04/23 11:16:09;;;;;;;24.10;21.90;;;;;;;19.74;77.93;98521.38;5071096;28;20201;-77
2022/04/23 11:18:37;;;;;;;24.87;22.53;;;;;;;20.03;74.56;98518.25;5070781;28;20181;-75
2022/04/23 11:21:07;;;;;;;24.83;22.67;;;;;;;20.27;73.46;98514.44;5053083;28;20243;-75
2022/04/23 11:23:35;;;;;;;24.60;22.40;;;;;;;20.03;71.85;98520.16;5069358;28;20243;-75
2022/04/23 11:26:02;;;;;;;25.00;22.73;;;;;;;19.77;71.86;98518.06;5053473;28;20548;-75
2022/04/23 11:28:29;;;;;;;25.50;23.27;;;;;;;19.16;74.98;98507.66;5070656;28;20174;-76
2022/04/23 11:30:57;;;;;;;24.97;22.80;;;;;;;19.04;73.96;98511.94;5069547;28;20514;-76
2022/04/23 11:33:24;;;;;;;24.90;22.50;;;;;;;19.40;73.27;98507.44;5069544;28;20185;-77
2022/04/23 11:35:56;;;;;;;24.57;22.27;;;;;;;19.54;71.71;98507.44;5070488;28;20182;-76
2022/04/23 11:38:27;;;;;;;23.57;21.37;;;;;;;19.63;68.62;98505.59;5054592;28;20178;-76
2022/04/23 11:40:54;;;;;;;24.47;22.17;;;;;;;19.35;68.88;98505.63;5073899;28;20228;-76
2022/04/23 11:43:35;;;;;;;23.10;21.10;;;;;;;18.81;72.92;98501.00;5074845;28;20212;-76
2022/04/23 11:46:11;;;;;;;24.43;22.23;;;;;;;18.60;75.12;98510.63;5056429;28;20251;-76
2022/04/23 11:48:39;;;;;;;23.47;21.23;;;;;;;18.45;75.99;98502.72;5056434;28;20192;-76